sensor_id;sensor_type;location;lat;lon;timestamp;temperature;humidity
27647;DHT22;42229;51.230;6.240;2023-11-22T00:02:11;8.10;99.90
27647;DHT22;42229;51.230;6.240;2023-11-22T00:04:38;8.10;99.90
27647;DHT22;42229;51.230;6.240;2023-11-22T00:07:04;8.00;99.90
27647;DHT22;42229;51.230;6.240;2023-11-22T00:09:30;8.00;99.90
27647;DHT22;42229;51.230;6.240;2023-11-22T00:11:56;8.00;99.90
27647;DHT22;42229;51.230;6.240;2023-11-22T00:14:22;7.90;99.90
27647;DHT22;42229;51.230;6.240;2023-11-22T00:16:49;7.80;99.90
27647;DHT22;42229;51.230;6.240;2023-11-22T00:19:15;7.80;99.90
27647;DHT22;42229;51.230;6.240;2023-11-22T00:21:44;7.70;99.90
27647;DHT22;42229;51.230;6.240;2023-11-22T00:24:10;7.60;99.90
27647;DHT22;42229;51.230;6.240;2023-11-22T00:26:36;7.60;99.90
27647;DHT22;42229;51.230;6.240;2023-11-22T00:29:02;7.50;99.90
27647;DHT22;42229;51.230;6.240;2023-11-22T00:31:29;7.40;99.90
27647;DHT22;42229;51.230;6.240;2023-11-22T00:33:55;7.40;99.90
27647;DHT22;42229;51.230;6.240;2023-11-22T00:36:22;7.30;99.90
27647;DHT22;42229;51.230;6.240;2023-11-22T00:38:48;7.20;99.90
27647;DHT22;42229;51.230;6.240;2023-11-22T00:41:15;7.20;99.90
27647;DHT22;42229;51.230;6.240;2023-11-22T00:43:41;7.10;99.90
27647;DHT22;42229;51.230;6.240;2023-11-22T00:46:08;7.10;99.90
27647;DHT22;42229;51.230;6.240;2023-11-22T00:48:34;7.10;99.90
27647;DHT22;42229;51.230;6.240;2023-11-22T00:51:00;7.10;99.90
27647;DHT22;42229;51.230;6.240;2023-11-22T00:53:27;7.10;99.90
27647;DHT22;42229;51.230;6.240;2023-11-22T00:55:53;7.10;99.90
27647;DHT22;42229;51.230;6.240;2023-11-22T00:58:19;7.20;99.90
27647;DHT22;42229;51.230;6.240;2023-11-22T01:00:46;7.20;99.90
27647;DHT22;42229;51.230;6.240;2023-11-22T01:03:12;7.20;99.90
27647;DHT22;42229;51.230;6.240;2023-11-22T01:05:38;7.30;99.90
27647;DHT22;42229;51.230;6.240;2023-11-22T01:08:04;7.20;99.90
27647;DHT22;42229;51.230;6.240;2023-11-22T01:10:31;7.20;99.90
27647;DHT22;42229;51.230;6.240;2023-11-22T01:12:57;7.30;99.90
27647;DHT22;42229;51.230;6.240;2023-11-22T01:15:23;7.30;99.90
27647;DHT22;42229;51.230;6.240;2023-11-22T01:17:50;7.20;99.90
27647;DHT22;42229;51.230;6.240;2023-11-22T01:20:16;7.20;99.90
27647;DHT22;42229;51.230;6.240;2023-11-22T01:22:43;7.20;99.90
27647;DHT22;42229;51.230;6.240;2023-11-22T01:25:09;7.20;99.90
27647;DHT22;42229;51.230;6.240;2023-11-22T01:27:35;7.10;99.90
27647;DHT22;42229;51.230;6.240;2023-11-22T01:30:02;7.10;99.90
27647;DHT22;42229;51.230;6.240;2023-11-22T01:32:32;7.10;99.90
27647;DHT22;42229;51.230;6.240;2023-11-22T01:34:58;7.10;99.90
27647;DHT22;42229;51.230;6.240;2023-11-22T01:37:24;7.10;99.90
27647;DHT22;42229;51.230;6.240;2023-11-22T01:39:53;7.10;99.90
27647;DHT22;42229;51.230;6.240;2023-11-22T01:42:21;7.10;99.90
27647;DHT22;42229;51.230;6.240;2023-11-22T01:44:47;7.10;99.90
27647;DHT22;42229;51.230;6.240;2023-11-22T01:47:13;7.10;99.90
27647;DHT22;42229;51.230;6.240;2023-11-22T01:49:40;7.10;99.90
27647;DHT22;42229;51.230;6.240;2023-11-22T01:52:06;7.10;99.90
27647;DHT22;42229;51.230;6.240;2023-11-22T01:54:32;7.10;99.90
27647;DHT22;42229;51.230;6.240;2023-11-22T01:56:59;7.10;99.90
27647;DHT22;42229;51.230;6.240;2023-11-22T01:59:26;7.00;99.90
27647;DHT22;42229;51.230;6.240;2023-11-22T02:01:53;7.00;99.90
27647;DHT22;42229;51.230;6.240;2023-11-22T02:04:20;7.00;99.90
27647;DHT22;42229;51.230;6.240;2023-11-22T02:06:46;7.00;99.90
27647;DHT22;42229;51.230;6.240;2023-11-22T02:09:13;6.90;99.90
27647;DHT22;42229;51.230;6.240;2023-11-22T02:11:41;6.90;99.90
27647;DHT22;42229;51.230;6.240;2023-11-22T02:14:13;6.90;99.90
27647;DHT22;42229;51.230;6.240;2023-11-22T02:16:40;6.80;99.90
27647;DHT22;42229;51.230;6.240;2023-11-22T02:19:07;6.80;99.90
27647;DHT22;42229;51.230;6.240;2023-11-22T02:21:38;6.80;99.90
27647;DHT22;42229;51.230;6.240;2023-11-22T02:24:04;6.80;99.90
27647;DHT22;42229;51.230;6.240;2023-11-22T02:26:31;6.80;99.90
27647;DHT22;42229;51.230;6.240;2023-11-22T02:28:57;6.80;99.90
27647;DHT22;42229;51.230;6.240;2023-11-22T02:31:25;6.80;99.90
27647;DHT22;42229;51.230;6.240;2023-11-22T02:33:53;6.80;99.90
27647;DHT22;42229;51.230;6.240;2023-11-22T02:36:22;6.80;99.90
27647;DHT22;42229;51.230;6.240;2023-11-22T02:38:48;6.80;99.90
27647;DHT22;42229;51.230;6.240;2023-11-22T02:41:14;6.80;99.90
27647;DHT22;42229;51.230;6.240;2023-11-22T02:43:40;6.80;99.90
27647;DHT22;42229;51.230;6.240;2023-11-22T02:46:10;6.80;99.90
27647;DHT22;42229;51.230;6.240;2023-11-22T02:48:36;6.80;99.90
27647;DHT22;42229;51.230;6.240;2023-11-22T02:51:03;6.80;99.90
27647;DHT22;42229;51.230;6.240;2023-11-22T02:53:30;6.80;99.90
27647;DHT22;42229;51.230;6.240;2023-11-22T02:55:59;6.80;99.90
27647;DHT22;42229;51.230;6.240;2023-11-22T02:58:28;6.80;99.90
27647;DHT22;42229;51.230;6.240;2023-11-22T03:00:54;6.80;99.90
27647;DHT22;42229;51.230;6.240;2023-11-22T03:03:23;6.80;99.90
27647;DHT22;42229;51.230;6.240;2023-11-22T03:05:49;6.80;99.90
27647;DHT22;42229;51.230;6.240;2023-11-22T03:08:18;6.80;99.90
27647;DHT22;42229;51.230;6.240;2023-11-22T03:10:45;6.80;99.90
27647;DHT22;42229;51.230;6.240;2023-11-22T03:13:11;6.80;99.90
27647;DHT22;42229;51.230;6.240;2023-11-22T03:15:38;6.80;99.90
27647;DHT22;42229;51.230;6.240;2023-11-22T03:18:05;6.80;99.90
27647;DHT22;42229;51.230;6.240;2023-11-22T03:20:32;6.80;99.90
27647;DHT22;42229;51.230;6.240;2023-11-22T03:22:59;6.80;99.90
27647;DHT22;42229;51.230;6.240;2023-11-22T03:25:28;6.80;99.90
27647;DHT22;42229;51.230;6.240;2023-11-22T03:27:54;6.80;99.90
27647;DHT22;42229;51.230;6.240;2023-11-22T03:30:20;6.70;99.90
27647;DHT22;42229;51.230;6.240;2023-11-22T03:32:49;6.80;99.90
27647;DHT22;42229;51.230;6.240;2023-11-22T03:35:16;6.80;99.90
27647;DHT22;42229;51.230;6.240;2023-11-22T03:37:42;6.80;99.90
27647;DHT22;42229;51.230;6.240;2023-11-22T03:40:09;6.70;99.90
27647;DHT22;42229;51.230;6.240;2023-11-22T03:42:36;6.80;99.90
27647;DHT22;42229;51.230;6.240;2023-11-22T03:45:05;6.80;99.90
27647;DHT22;42229;51.230;6.240;2023-11-22T03:47:32;6.80;99.90
27647;DHT22;42229;51.230;6.240;2023-11-22T03:49:59;6.70;99.90
27647;DHT22;42229;51.230;6.240;2023-11-22T03:52:25;6.80;99.90
27647;DHT22;42229;51.230;6.240;2023-11-22T03:54:54;6.80;99.90
27647;DHT22;42229;51.230;6.240;2023-11-22T03:57:20;6.80;99.90
27647;DHT22;42229;51.230;6.240;2023-11-22T03:59:47;6.80;99.90
27647;DHT22;42229;51.230;6.240;2023-11-22T04:02:13;6.80;99.90
27647;DHT22;42229;51.230;6.240;2023-11-22T04:04:39;6.70;99.90
27647;DHT22;42229;51.230;6.240;2023-11-22T04:07:07;6.70;99.90
27647;DHT22;42229;51.230;6.240;2023-11-22T04:09:33;6.70;99.90
27647;DHT22;42229;51.230;6.240;2023-11-22T04:12:00;6.70;99.90
27647;DHT22;42229;51.230;6.240;2023-11-22T04:14:26;6.70;99.90
27647;DHT22;42229;51.230;6.240;2023-11-22T04:16:55;6.70;99.90
27647;DHT22;42229;51.230;6.240;2023-11-22T04:19:21;6.70;99.90
27647;DHT22;42229;51.230;6.240;2023-11-22T04:21:48;6.70;99.90
27647;DHT22;42229;51.230;6.240;2023-11-22T04:24:14;6.70;99.90
27647;DHT22;42229;51.230;6.240;2023-11-22T04:26:40;6.70;99.90
27647;DHT22;42229;51.230;6.240;2023-11-22T04:29:07;6.70;99.90
27647;DHT22;42229;51.230;6.240;2023-11-22T04:31:33;6.70;99.90
27647;DHT22;42229;51.230;6.240;2023-11-22T04:33:59;6.70;99.90
27647;DHT22;42229;51.230;6.240;2023-11-22T04:36:26;6.70;99.90
27647;DHT22;42229;51.230;6.240;2023-11-22T04:38:52;6.70;99.90
27647;DHT22;42229;51.230;6.240;2023-11-22T04:41:18;6.70;99.90
27647;DHT22;42229;51.230;6.240;2023-11-22T04:43:44;6.80;99.90
27647;DHT22;42229;51.230;6.240;2023-11-22T04:46:10;6.70;99.90
27647;DHT22;42229;51.230;6.240;2023-11-22T04:48:37;6.70;99.90
27647;DHT22;42229;51.230;6.240;2023-11-22T04:51:06;6.80;99.90
27647;DHT22;42229;51.230;6.240;2023-11-22T04:53:32;6.70;99.90
27647;DHT22;42229;51.230;6.240;2023-11-22T04:55:58;6.70;99.90
27647;DHT22;42229;51.230;6.240;2023-11-22T04:58:25;6.70;99.90
27647;DHT22;42229;51.230;6.240;2023-11-22T05:00:51;6.70;99.90
27647;DHT22;42229;51.230;6.240;2023-11-22T05:03:17;6.70;99.90
27647;DHT22;42229;51.230;6.240;2023-11-22T05:05:44;6.70;99.90
27647;DHT22;42229;51.230;6.240;2023-11-22T05:08:10;6.70;99.90
27647;DHT22;42229;51.230;6.240;2023-11-22T05:10:37;6.70;99.90
27647;DHT22;42229;51.230;6.240;2023-11-22T05:13:03;6.60;99.90
27647;DHT22;42229;51.230;6.240;2023-11-22T05:15:31;6.60;99.90
27647;DHT22;42229;51.230;6.240;2023-11-22T05:17:57;6.60;99.90
27647;DHT22;42229;51.230;6.240;2023-11-22T05:20:23;6.60;99.90
27647;DHT22;42229;51.230;6.240;2023-11-22T05:22:50;6.50;99.90
27647;DHT22;42229;51.230;6.240;2023-11-22T05:25:16;6.50;99.90
27647;DHT22;42229;51.230;6.240;2023-11-22T05:27:43;6.50;99.90
27647;DHT22;42229;51.230;6.240;2023-11-22T05:30:09;6.40;99.90
27647;DHT22;42229;51.230;6.240;2023-11-22T05:32:36;6.40;99.90
27647;DHT22;42229;51.230;6.240;2023-11-22T05:35:03;6.30;99.90
27647;DHT22;42229;51.230;6.240;2023-11-22T05:37:32;6.30;99.90
27647;DHT22;42229;51.230;6.240;2023-11-22T05:39:58;6.20;99.90
27647;DHT22;42229;51.230;6.240;2023-11-22T05:42:25;6.20;99.90
27647;DHT22;42229;51.230;6.240;2023-11-22T05:44:51;6.10;99.90
27647;DHT22;42229;51.230;6.240;2023-11-22T05:47:17;6.10;99.90
27647;DHT22;42229;51.230;6.240;2023-11-22T05:49:44;6.00;99.90
27647;DHT22;42229;51.230;6.240;2023-11-22T05:52:10;6.00;99.90
27647;DHT22;42229;51.230;6.240;2023-11-22T05:54:36;5.90;99.90
27647;DHT22;42229;51.230;6.240;2023-11-22T05:57:03;5.80;99.90
27647;DHT22;42229;51.230;6.240;2023-11-22T05:59:30;5.80;99.90
27647;DHT22;42229;51.230;6.240;2023-11-22T06:01:56;5.80;99.90
27647;DHT22;42229;51.230;6.240;2023-11-22T06:04:22;5.70;99.90
27647;DHT22;42229;51.230;6.240;2023-11-22T06:06:49;5.70;99.90
27647;DHT22;42229;51.230;6.240;2023-11-22T06:09:15;5.60;99.90
27647;DHT22;42229;51.230;6.240;2023-11-22T06:11:41;5.50;99.90
27647;DHT22;42229;51.230;6.240;2023-11-22T06:14:07;5.50;99.90
27647;DHT22;42229;51.230;6.240;2023-11-22T06:16:33;5.50;99.90
27647;DHT22;42229;51.230;6.240;2023-11-22T06:19:00;5.50;99.90
27647;DHT22;42229;51.230;6.240;2023-11-22T06:21:26;5.40;99.90
27647;DHT22;42229;51.230;6.240;2023-11-22T06:23:53;5.40;99.90
27647;DHT22;42229;51.230;6.240;2023-11-22T06:26:22;5.30;99.90
27647;DHT22;42229;51.230;6.240;2023-11-22T06:28:49;5.20;99.90
27647;DHT22;42229;51.230;6.240;2023-11-22T06:31:15;5.20;99.90
27647;DHT22;42229;51.230;6.240;2023-11-22T06:33:41;5.20;99.90
27647;DHT22;42229;51.230;6.240;2023-11-22T06:36:07;5.10;99.90
27647;DHT22;42229;51.230;6.240;2023-11-22T06:38:37;5.10;99.90
27647;DHT22;42229;51.230;6.240;2023-11-22T06:41:03;5.00;99.90
27647;DHT22;42229;51.230;6.240;2023-11-22T06:43:29;5.00;99.90
27647;DHT22;42229;51.230;6.240;2023-11-22T06:45:56;5.00;99.90
27647;DHT22;42229;51.230;6.240;2023-11-22T06:48:22;5.00;99.90
27647;DHT22;42229;51.230;6.240;2023-11-22T06:50:48;4.90;99.90
27647;DHT22;42229;51.230;6.240;2023-11-22T06:53:14;4.90;99.90
27647;DHT22;42229;51.230;6.240;2023-11-22T06:55:45;4.90;99.90
27647;DHT22;42229;51.230;6.240;2023-11-22T06:58:11;4.90;99.90
27647;DHT22;42229;51.230;6.240;2023-11-22T07:00:38;5.00;99.90
27647;DHT22;42229;51.230;6.240;2023-11-22T07:03:06;5.00;99.90
27647;DHT22;42229;51.230;6.240;2023-11-22T07:05:32;5.00;99.90
27647;DHT22;42229;51.230;6.240;2023-11-22T07:07:58;5.00;99.90
27647;DHT22;42229;51.230;6.240;2023-11-22T07:10:25;5.00;99.90
27647;DHT22;42229;51.230;6.240;2023-11-22T07:12:53;5.10;99.90
27647;DHT22;42229;51.230;6.240;2023-11-22T07:15:19;5.10;99.90
27647;DHT22;42229;51.230;6.240;2023-11-22T07:17:45;5.10;99.90
27647;DHT22;42229;51.230;6.240;2023-11-22T07:20:11;5.10;99.90
27647;DHT22;42229;51.230;6.240;2023-11-22T07:22:42;5.10;99.90
27647;DHT22;42229;51.230;6.240;2023-11-22T07:25:09;5.20;99.90
27647;DHT22;42229;51.230;6.240;2023-11-22T07:27:47;5.20;99.90
27647;DHT22;42229;51.230;6.240;2023-11-22T07:30:13;5.20;99.90
27647;DHT22;42229;51.230;6.240;2023-11-22T07:32:40;5.20;99.90
27647;DHT22;42229;51.230;6.240;2023-11-22T07:35:06;5.20;99.90
27647;DHT22;42229;51.230;6.240;2023-11-22T07:37:34;5.20;99.90
27647;DHT22;42229;51.230;6.240;2023-11-22T07:40:01;5.20;99.90
27647;DHT22;42229;51.230;6.240;2023-11-22T07:42:29;5.20;99.90
27647;DHT22;42229;51.230;6.240;2023-11-22T07:44:55;5.30;99.90
27647;DHT22;42229;51.230;6.240;2023-11-22T07:47:22;5.20;99.90
27647;DHT22;42229;51.230;6.240;2023-11-22T07:49:50;5.30;99.90
27647;DHT22;42229;51.230;6.240;2023-11-22T07:52:17;5.30;99.90
27647;DHT22;42229;51.230;6.240;2023-11-22T07:54:43;5.30;99.90
27647;DHT22;42229;51.230;6.240;2023-11-22T07:57:10;5.30;99.90
27647;DHT22;42229;51.230;6.240;2023-11-22T07:59:36;5.30;99.90
27647;DHT22;42229;51.230;6.240;2023-11-22T08:02:03;5.30;99.90
27647;DHT22;42229;51.230;6.240;2023-11-22T08:04:32;5.40;99.90
27647;DHT22;42229;51.230;6.240;2023-11-22T08:06:58;5.50;99.90
27647;DHT22;42229;51.230;6.240;2023-11-22T08:09:27;5.50;99.90
27647;DHT22;42229;51.230;6.240;2023-11-22T08:11:58;5.50;99.90
27647;DHT22;42229;51.230;6.240;2023-11-22T08:14:27;5.60;99.90
27647;DHT22;42229;51.230;6.240;2023-11-22T08:16:54;5.60;99.90
27647;DHT22;42229;51.230;6.240;2023-11-22T08:19:20;5.60;99.90
27647;DHT22;42229;51.230;6.240;2023-11-22T08:21:49;5.70;99.90
27647;DHT22;42229;51.230;6.240;2023-11-22T08:24:15;5.70;99.90
27647;DHT22;42229;51.230;6.240;2023-11-22T08:26:41;5.70;99.90
27647;DHT22;42229;51.230;6.240;2023-11-22T08:29:08;5.70;99.90
27647;DHT22;42229;51.230;6.240;2023-11-22T08:31:34;5.80;99.90
27647;DHT22;42229;51.230;6.240;2023-11-22T08:34:02;5.80;99.90
27647;DHT22;42229;51.230;6.240;2023-11-22T08:36:32;5.80;99.90
27647;DHT22;42229;51.230;6.240;2023-11-22T08:39:02;5.90;99.90
27647;DHT22;42229;51.230;6.240;2023-11-22T08:41:29;5.90;99.90
27647;DHT22;42229;51.230;6.240;2023-11-22T08:43:56;5.90;99.90
27647;DHT22;42229;51.230;6.240;2023-11-22T08:46:22;5.90;99.90
27647;DHT22;42229;51.230;6.240;2023-11-22T08:48:49;6.00;99.90
27647;DHT22;42229;51.230;6.240;2023-11-22T08:51:17;5.90;99.90
27647;DHT22;42229;51.230;6.240;2023-11-22T08:53:43;6.00;99.90
27647;DHT22;42229;51.230;6.240;2023-11-22T08:56:12;6.10;99.90
27647;DHT22;42229;51.230;6.240;2023-11-22T08:58:39;6.10;99.90
27647;DHT22;42229;51.230;6.240;2023-11-22T09:01:05;6.10;99.90
27647;DHT22;42229;51.230;6.240;2023-11-22T09:03:33;6.20;99.90
27647;DHT22;42229;51.230;6.240;2023-11-22T09:05:59;6.20;99.90
27647;DHT22;42229;51.230;6.240;2023-11-22T09:08:26;6.20;99.90
27647;DHT22;42229;51.230;6.240;2023-11-22T09:10:52;6.30;99.90
27647;DHT22;42229;51.230;6.240;2023-11-22T09:13:19;6.30;99.90
27647;DHT22;42229;51.230;6.240;2023-11-22T09:15:46;6.40;99.90
27647;DHT22;42229;51.230;6.240;2023-11-22T09:18:13;6.40;99.90
27647;DHT22;42229;51.230;6.240;2023-11-22T09:20:39;6.40;99.90
27647;DHT22;42229;51.230;6.240;2023-11-22T09:23:05;6.50;99.90
27647;DHT22;42229;51.230;6.240;2023-11-22T09:25:31;6.50;99.90
27647;DHT22;42229;51.230;6.240;2023-11-22T09:28:00;6.50;99.90
27647;DHT22;42229;51.230;6.240;2023-11-22T09:30:27;6.50;99.90
27647;DHT22;42229;51.230;6.240;2023-11-22T09:33:02;6.60;99.90
27647;DHT22;42229;51.230;6.240;2023-11-22T09:35:29;6.60;99.90
27647;DHT22;42229;51.230;6.240;2023-11-22T09:37:57;6.60;99.90
27647;DHT22;42229;51.230;6.240;2023-11-22T09:40:25;6.70;99.90
27647;DHT22;42229;51.230;6.240;2023-11-22T09:42:53;6.80;99.90
27647;DHT22;42229;51.230;6.240;2023-11-22T09:45:19;6.90;99.90
27647;DHT22;42229;51.230;6.240;2023-11-22T09:47:46;7.00;99.90
27647;DHT22;42229;51.230;6.240;2023-11-22T09:50:17;7.00;99.90
27647;DHT22;42229;51.230;6.240;2023-11-22T09:52:50;7.00;99.90
27647;DHT22;42229;51.230;6.240;2023-11-22T09:55:17;7.10;99.90
27647;DHT22;42229;51.230;6.240;2023-11-22T09:57:44;7.10;99.90
27647;DHT22;42229;51.230;6.240;2023-11-22T10:00:10;7.10;99.90
27647;DHT22;42229;51.230;6.240;2023-11-22T10:02:40;7.10;99.90
27647;DHT22;42229;51.230;6.240;2023-11-22T10:05:07;7.00;99.90
27647;DHT22;42229;51.230;6.240;2023-11-22T10:07:37;7.00;99.90
27647;DHT22;42229;51.230;6.240;2023-11-22T10:10:04;7.00;99.90
27647;DHT22;42229;51.230;6.240;2023-11-22T10:12:31;7.00;99.90
27647;DHT22;42229;51.230;6.240;2023-11-22T10:15:13;7.10;99.90
27647;DHT22;42229;51.230;6.240;2023-11-22T10:17:40;7.10;99.90
27647;DHT22;42229;51.230;6.240;2023-11-22T10:20:07;7.10;99.90
27647;DHT22;42229;51.230;6.240;2023-11-22T10:22:43;7.10;99.90
27647;DHT22;42229;51.230;6.240;2023-11-22T10:25:11;7.20;99.90
27647;DHT22;42229;51.230;6.240;2023-11-22T10:27:38;7.20;99.90
27647;DHT22;42229;51.230;6.240;2023-11-22T10:30:07;7.30;99.90
27647;DHT22;42229;51.230;6.240;2023-11-22T10:32:36;7.30;99.90
27647;DHT22;42229;51.230;6.240;2023-11-22T10:35:05;7.40;99.90
27647;DHT22;42229;51.230;6.240;2023-11-22T10:37:32;7.50;99.90
27647;DHT22;42229;51.230;6.240;2023-11-22T10:39:58;7.60;99.90
27647;DHT22;42229;51.230;6.240;2023-11-22T10:42:25;7.60;99.90
27647;DHT22;42229;51.230;6.240;2023-11-22T10:44:54;7.70;99.90
27647;DHT22;42229;51.230;6.240;2023-11-22T10:47:23;7.80;99.90
27647;DHT22;42229;51.230;6.240;2023-11-22T10:49:49;7.90;99.90
27647;DHT22;42229;51.230;6.240;2023-11-22T10:52:16;7.90;99.90
27647;DHT22;42229;51.230;6.240;2023-11-22T10:54:44;8.00;99.90
27647;DHT22;42229;51.230;6.240;2023-11-22T10:57:18;8.10;99.90
27647;DHT22;42229;51.230;6.240;2023-11-22T10:59:51;8.20;99.90
27647;DHT22;42229;51.230;6.240;2023-11-22T11:02:21;8.20;99.90
27647;DHT22;42229;51.230;6.240;2023-11-22T11:04:51;8.30;99.90
27647;DHT22;42229;51.230;6.240;2023-11-22T11:07:21;8.40;99.90
27647;DHT22;42229;51.230;6.240;2023-11-22T11:09:49;8.50;99.90
27647;DHT22;42229;51.230;6.240;2023-11-22T11:12:17;8.60;99.90
27647;DHT22;42229;51.230;6.240;2023-11-22T11:14:44;8.70;99.90
27647;DHT22;42229;51.230;6.240;2023-11-22T11:17:13;8.90;99.90
27647;DHT22;42229;51.230;6.240;2023-11-22T11:19:40;9.10;99.90
27647;DHT22;42229;51.230;6.240;2023-11-22T11:22:07;9.30;99.90
27647;DHT22;42229;51.230;6.240;2023-11-22T11:24:39;9.40;99.90
27647;DHT22;42229;51.230;6.240;2023-11-22T11:27:06;9.60;99.90
27647;DHT22;42229;51.230;6.240;2023-11-22T11:29:34;9.80;99.90
27647;DHT22;42229;51.230;6.240;2023-11-22T11:32:03;9.90;99.90
27647;DHT22;42229;51.230;6.240;2023-11-22T11:34:31;10.00;99.90
27647;DHT22;42229;51.230;6.240;2023-11-22T11:36:59;10.20;99.90
27647;DHT22;42229;51.230;6.240;2023-11-22T11:39:26;10.20;99.90
27647;DHT22;42229;51.230;6.240;2023-11-22T11:42:11;10.20;99.90
27647;DHT22;42229;51.230;6.240;2023-11-22T11:47:27;10.10;99.90
27647;DHT22;42229;51.230;6.240;2023-11-22T11:49:55;10.00;99.90
27647;DHT22;42229;51.230;6.240;2023-11-22T11:52:21;9.90;99.90
27647;DHT22;42229;51.230;6.240;2023-11-22T11:54:50;9.90;99.90
27647;DHT22;42229;51.230;6.240;2023-11-22T11:57:16;9.90;99.90
27647;DHT22;42229;51.230;6.240;2023-11-22T11:59:43;9.80;99.90
27647;DHT22;42229;51.230;6.240;2023-11-22T12:02:09;9.90;99.90
27647;DHT22;42229;51.230;6.240;2023-11-22T12:04:35;9.90;99.90
27647;DHT22;42229;51.230;6.240;2023-11-22T12:07:01;10.00;99.90
27647;DHT22;42229;51.230;6.240;2023-11-22T12:09:27;10.20;99.90
27647;DHT22;42229;51.230;6.240;2023-11-22T12:11:59;10.30;99.90
27647;DHT22;42229;51.230;6.240;2023-11-22T12:14:27;10.50;99.90
27647;DHT22;42229;51.230;6.240;2023-11-22T12:16:54;10.60;99.90
27647;DHT22;42229;51.230;6.240;2023-11-22T12:19:21;10.70;99.90
27647;DHT22;42229;51.230;6.240;2023-11-22T12:21:48;10.60;99.90
27647;DHT22;42229;51.230;6.240;2023-11-22T12:24:20;10.60;99.90
27647;DHT22;42229;51.230;6.240;2023-11-22T12:26:47;10.50;99.90
27647;DHT22;42229;51.230;6.240;2023-11-22T12:29:15;10.50;99.90
27647;DHT22;42229;51.230;6.240;2023-11-22T12:31:44;10.40;99.90
27647;DHT22;42229;51.230;6.240;2023-11-22T12:34:17;10.40;99.90
27647;DHT22;42229;51.230;6.240;2023-11-22T12:36:45;10.50;99.90
27647;DHT22;42229;51.230;6.240;2023-11-22T12:39:13;10.60;99.90
27647;DHT22;42229;51.230;6.240;2023-11-22T12:41:49;10.80;99.90
27647;DHT22;42229;51.230;6.240;2023-11-22T12:44:17;11.00;99.90
27647;DHT22;42229;51.230;6.240;2023-11-22T12:46:52;11.40;99.90
27647;DHT22;42229;51.230;6.240;2023-11-22T12:49:28;11.60;99.90
27647;DHT22;42229;51.230;6.240;2023-11-22T12:51:55;12.00;99.90
27647;DHT22;42229;51.230;6.240;2023-11-22T12:54:25;12.30;99.90
27647;DHT22;42229;51.230;6.240;2023-11-22T12:56:51;12.50;99.90
27647;DHT22;42229;51.230;6.240;2023-11-22T12:59:24;12.70;99.90
27647;DHT22;42229;51.230;6.240;2023-11-22T13:01:50;12.90;99.90
27647;DHT22;42229;51.230;6.240;2023-11-22T13:04:18;13.10;99.90
27647;DHT22;42229;51.230;6.240;2023-11-22T13:06:44;13.10;99.90
27647;DHT22;42229;51.230;6.240;2023-11-22T13:09:11;13.20;99.90
27647;DHT22;42229;51.230;6.240;2023-11-22T13:11:41;13.10;99.90
27647;DHT22;42229;51.230;6.240;2023-11-22T13:14:08;13.00;99.90
27647;DHT22;42229;51.230;6.240;2023-11-22T13:16:35;12.90;99.90
27647;DHT22;42229;51.230;6.240;2023-11-22T13:19:04;12.80;99.90
27647;DHT22;42229;51.230;6.240;2023-11-22T13:21:31;12.70;99.90
27647;DHT22;42229;51.230;6.240;2023-11-22T13:23:57;12.70;99.90
27647;DHT22;42229;51.230;6.240;2023-11-22T13:26:25;12.60;99.90
27647;DHT22;42229;51.230;6.240;2023-11-22T13:28:52;12.60;99.90
27647;DHT22;42229;51.230;6.240;2023-11-22T13:31:20;12.70;99.90
27647;DHT22;42229;51.230;6.240;2023-11-22T13:33:47;12.80;99.90
27647;DHT22;42229;51.230;6.240;2023-11-22T13:36:13;12.90;99.90
27647;DHT22;42229;51.230;6.240;2023-11-22T13:38:40;13.00;99.90
27647;DHT22;42229;51.230;6.240;2023-11-22T13:41:07;13.10;99.90
27647;DHT22;42229;51.230;6.240;2023-11-22T13:43:33;13.10;99.90
27647;DHT22;42229;51.230;6.240;2023-11-22T13:46:00;13.10;99.90
27647;DHT22;42229;51.230;6.240;2023-11-22T13:48:27;12.90;99.90
27647;DHT22;42229;51.230;6.240;2023-11-22T13:50:53;12.80;99.90
27647;DHT22;42229;51.230;6.240;2023-11-22T13:53:19;12.60;99.90
27647;DHT22;42229;51.230;6.240;2023-11-22T13:55:48;12.30;99.90
27647;DHT22;42229;51.230;6.240;2023-11-22T13:58:16;12.10;99.90
27647;DHT22;42229;51.230;6.240;2023-11-22T14:00:42;11.90;99.90
27647;DHT22;42229;51.230;6.240;2023-11-22T14:03:08;11.60;99.90
27647;DHT22;42229;51.230;6.240;2023-11-22T14:05:36;11.40;99.90
27647;DHT22;42229;51.230;6.240;2023-11-22T14:08:06;11.10;99.90
27647;DHT22;42229;51.230;6.240;2023-11-22T14:10:33;11.00;99.90
27647;DHT22;42229;51.230;6.240;2023-11-22T14:12:59;10.80;99.90
27647;DHT22;42229;51.230;6.240;2023-11-22T14:15:26;10.60;99.90
27647;DHT22;42229;51.230;6.240;2023-11-22T14:17:56;10.50;99.90
27647;DHT22;42229;51.230;6.240;2023-11-22T14:20:22;10.40;99.90
27647;DHT22;42229;51.230;6.240;2023-11-22T14:22:50;10.20;99.90
27647;DHT22;42229;51.230;6.240;2023-11-22T14:25:16;10.10;99.90
27647;DHT22;42229;51.230;6.240;2023-11-22T14:27:43;10.00;99.90
27647;DHT22;42229;51.230;6.240;2023-11-22T14:30:11;9.90;99.90
27647;DHT22;42229;51.230;6.240;2023-11-22T14:32:43;9.80;99.90
27647;DHT22;42229;51.230;6.240;2023-11-22T14:35:09;9.70;99.90
27647;DHT22;42229;51.230;6.240;2023-11-22T14:37:36;9.60;99.90
27647;DHT22;42229;51.230;6.240;2023-11-22T14:40:06;9.60;99.90
27647;DHT22;42229;51.230;6.240;2023-11-22T14:42:43;9.50;99.90
27647;DHT22;42229;51.230;6.240;2023-11-22T14:45:11;9.40;99.90
27647;DHT22;42229;51.230;6.240;2023-11-22T14:47:38;9.30;99.90
27647;DHT22;42229;51.230;6.240;2023-11-22T14:50:06;9.30;99.90
27647;DHT22;42229;51.230;6.240;2023-11-22T14:52:35;9.20;99.90
27647;DHT22;42229;51.230;6.240;2023-11-22T14:55:02;9.20;99.90
27647;DHT22;42229;51.230;6.240;2023-11-22T14:57:30;9.20;99.90
27647;DHT22;42229;51.230;6.240;2023-11-22T14:59:57;9.10;99.90
27647;DHT22;42229;51.230;6.240;2023-11-22T15:02:23;9.00;99.90
27647;DHT22;42229;51.230;6.240;2023-11-22T15:04:52;9.00;99.90
27647;DHT22;42229;51.230;6.240;2023-11-22T15:07:18;9.00;99.90
27647;DHT22;42229;51.230;6.240;2023-11-22T15:09:45;9.00;99.90
27647;DHT22;42229;51.230;6.240;2023-11-22T15:12:11;8.90;99.90
27647;DHT22;42229;51.230;6.240;2023-11-22T15:14:38;8.90;99.90
27647;DHT22;42229;51.230;6.240;2023-11-22T15:17:04;8.90;99.90
27647;DHT22;42229;51.230;6.240;2023-11-22T15:19:30;8.80;99.90
27647;DHT22;42229;51.230;6.240;2023-11-22T15:21:57;8.80;99.90
27647;DHT22;42229;51.230;6.240;2023-11-22T15:24:24;8.70;99.90
27647;DHT22;42229;51.230;6.240;2023-11-22T15:26:52;8.70;99.90
27647;DHT22;42229;51.230;6.240;2023-11-22T15:29:18;8.70;99.90
27647;DHT22;42229;51.230;6.240;2023-11-22T15:31:45;8.70;99.90
27647;DHT22;42229;51.230;6.240;2023-11-22T15:34:11;8.60;99.90
27647;DHT22;42229;51.230;6.240;2023-11-22T15:36:37;8.60;99.90
27647;DHT22;42229;51.230;6.240;2023-11-22T15:39:05;8.60;99.90
27647;DHT22;42229;51.230;6.240;2023-11-22T15:41:32;8.60;99.90
27647;DHT22;42229;51.230;6.240;2023-11-22T15:43:58;8.60;99.90
27647;DHT22;42229;51.230;6.240;2023-11-22T15:46:24;8.60;99.90